Pawelekville, Texas
Current Conditions -  °F | °C
As of 10:15 PM on Wednesday 22 Oct 2014 (Local Time) from KPEZ Reporting Station
Clear Clear  
Wind Chill: 73°   Ceiling: Unl
Heat Index: 73°   Visibility: 10mi
Dew Point: 56°   Wind: 3mph
Humidity: 56%   Direction: 70°ENE
Pressure: 30.08"   Gusts: NA
Location:  28.933°N, 98.0642°W
Report Text: KPEZ 230315Z AUTO 07003KT 10SM CLR 23/14 A3008 RMK AO2 T02270136
Loading
Personal Weather Stations






























Interactive Weather Map
Tropical Storm Tracking
New forecast layout! Learn more

10-Day Weather Forecast

Advertisements
Track Severe Weather on mobile